createdAt,value
2018-06-16T00:01:55.771Z,91.00
2018-06-16T00:04:23.333Z,91.00
2018-06-16T00:06:50.922Z,91.20
2018-06-16T00:09:18.480Z,91.30
2018-06-16T00:11:46.048Z,91.20
2018-06-16T00:14:13.577Z,91.30
2018-06-16T00:16:41.141Z,91.20
2018-06-16T00:19:08.733Z,91.20
2018-06-16T00:21:36.296Z,91.10
2018-06-16T00:24:03.829Z,91.40
2018-06-16T00:26:31.352Z,91.10
2018-06-16T00:28:58.919Z,91.60
2018-06-16T00:31:26.449Z,91.50
2018-06-16T00:33:54.306Z,91.50
2018-06-16T00:36:21.865Z,91.60
2018-06-16T00:38:49.412Z,91.60
2018-06-16T00:41:17.124Z,91.90
2018-06-16T00:43:44.649Z,92.00
2018-06-16T00:46:12.345Z,92.10
2018-06-16T00:48:40.795Z,92.30
2018-06-16T00:51:08.320Z,92.60
2018-06-16T00:53:36.021Z,92.50
2018-06-16T00:56:03.648Z,92.40
2018-06-16T00:58:31.165Z,92.40
2018-06-16T01:00:58.702Z,92.50
2018-06-16T01:03:26.272Z,92.70
2018-06-16T01:05:53.789Z,92.70
2018-06-16T01:08:21.461Z,92.90
2018-06-16T01:10:48.983Z,93.10
2018-06-16T01:13:16.525Z,93.10
2018-06-16T01:15:44.061Z,92.80
2018-06-16T01:18:11.597Z,92.90
2018-06-16T01:20:39.254Z,92.70
2018-06-16T01:23:06.785Z,92.80
2018-06-16T01:25:34.338Z,93.00
2018-06-16T01:28:01.873Z,93.20
2018-06-16T01:30:29.433Z,93.30
2018-06-16T01:32:56.964Z,93.20
2018-06-16T01:35:24.681Z,93.10
2018-06-16T01:37:53.189Z,93.20
2018-06-16T01:40:20.819Z,93.00
2018-06-16T01:42:48.361Z,93.10
2018-06-16T01:45:15.922Z,93.20
2018-06-16T01:47:43.433Z,92.90
2018-06-16T01:50:10.976Z,93.00
2018-06-16T01:52:38.489Z,93.30
2018-06-16T01:55:06.041Z,93.30
2018-06-16T01:57:33.693Z,93.20
2018-06-16T02:00:01.255Z,93.40
2018-06-16T02:02:28.918Z,93.40
2018-06-16T02:04:56.453Z,93.40
2018-06-16T02:07:30.736Z,93.50
2018-06-16T02:09:58.370Z,93.40
2018-06-16T02:12:26.085Z,93.30
2018-06-16T02:14:53.628Z,93.20
2018-06-16T02:17:21.221Z,93.30
2018-06-16T02:19:48.768Z,93.10
2018-06-16T02:22:16.340Z,93.20
2018-06-16T02:24:43.946Z,93.30
2018-06-16T02:27:11.593Z,93.40
2018-06-16T02:29:43.357Z,93.10
2018-06-16T02:32:10.907Z,93.20
2018-06-16T02:34:38.569Z,93.20
2018-06-16T02:37:06.130Z,93.00
2018-06-16T02:39:33.797Z,93.10
2018-06-16T02:42:01.390Z,93.00
2018-06-16T02:44:29.003Z,93.10
2018-06-16T02:46:56.546Z,93.10
2018-06-16T02:49:24.137Z,93.10
2018-06-16T02:51:51.798Z,93.30
2018-06-16T02:54:19.349Z,93.20
2018-06-16T02:56:47.033Z,93.10
2018-06-16T02:59:14.657Z,93.50
2018-06-16T03:01:42.266Z,93.40
2018-06-16T03:04:09.838Z,93.50
2018-06-16T03:06:37.493Z,93.40
2018-06-16T03:09:05.921Z,93.30
2018-06-16T03:11:33.471Z,93.40
2018-06-16T03:14:01.146Z,93.30
2018-06-16T03:16:28.713Z,93.30
2018-06-16T03:18:57.125Z,93.10
2018-06-16T03:21:24.661Z,93.20
2018-06-16T03:23:52.210Z,93.30
2018-06-16T03:26:22.762Z,93.20
2018-06-16T03:28:50.305Z,93.10
2018-06-16T03:31:19.525Z,93.20
2018-06-16T03:33:47.066Z,93.00
2018-06-16T03:36:14.671Z,92.80
2018-06-16T03:38:42.198Z,92.60
2018-06-16T03:41:09.869Z,92.60
2018-06-16T03:43:37.404Z,92.70
2018-06-16T03:46:05.089Z,92.50
2018-06-16T03:48:32.669Z,92.50
2018-06-16T03:51:00.286Z,92.50
2018-06-16T03:53:27.886Z,92.40
2018-06-16T03:55:55.441Z,92.10
2018-06-16T03:58:25.924Z,92.30
2018-06-16T04:00:53.517Z,92.30
2018-06-16T04:03:21.169Z,92.10
2018-06-16T04:05:48.717Z,92.10
2018-06-16T04:08:17.249Z,92.10
2018-06-16T04:10:44.949Z,92.10
2018-06-16T04:13:12.477Z,91.80
2018-06-16T04:15:41.648Z,91.80
2018-06-16T04:18:09.180Z,91.90
2018-06-16T04:20:36.753Z,91.80
2018-06-16T04:23:04.445Z,91.60
2018-06-16T04:25:32.161Z,91.90
2018-06-16T04:27:59.704Z,91.70
2018-06-16T04:30:28.225Z,91.30
2018-06-16T04:32:55.835Z,91.10
2018-06-16T04:35:23.352Z,90.80
2018-06-16T04:37:51.082Z,90.80
2018-06-16T04:40:18.613Z,90.90
2018-06-16T04:42:46.170Z,91.00
2018-06-16T04:45:14.942Z,91.00
2018-06-16T04:47:42.637Z,90.70
2018-06-16T04:50:10.166Z,90.70
2018-06-16T04:52:37.742Z,90.60
2018-06-16T04:55:05.297Z,90.70
2018-06-16T04:57:33.761Z,90.90
2018-06-16T05:00:01.297Z,90.60
2018-06-16T05:02:31.800Z,90.60
2018-06-16T05:04:59.336Z,90.60
2018-06-16T05:07:26.921Z,90.60
2018-06-16T05:09:54.466Z,90.40
2018-06-16T05:12:22.166Z,90.80
2018-06-16T05:14:49.707Z,91.10
2018-06-16T05:17:18.208Z,91.00
2018-06-16T05:19:45.785Z,91.00
2018-06-16T05:22:13.341Z,91.00
2018-06-16T05:24:41.165Z,91.10
2018-06-16T05:27:08.898Z,91.20
2018-06-16T05:29:36.529Z,91.30
2018-06-16T05:32:04.093Z,91.30
2018-06-16T05:34:31.836Z,91.30
2018-06-16T05:36:59.417Z,91.30
2018-06-16T05:39:27.013Z,91.10
2018-06-16T05:41:54.605Z,91.00
2018-06-16T05:44:23.740Z,90.80
2018-06-16T05:46:52.054Z,90.70
2018-06-16T05:49:19.733Z,90.20
2018-06-16T05:51:47.367Z,90.20
2018-06-16T05:54:15.809Z,90.00
2018-06-16T05:56:43.433Z,89.30
2018-06-16T05:59:11.563Z,88.60
2018-06-16T06:01:39.855Z,88.20
2018-06-16T06:04:08.367Z,87.20
2018-06-16T06:06:36.017Z,85.80
2018-06-16T06:09:05.325Z,86.40
2018-06-16T06:11:32.874Z,84.80
2018-06-16T06:14:00.593Z,84.40
2018-06-16T06:16:28.505Z,85.00
2018-06-16T06:18:56.202Z,84.30
2018-06-16T06:21:27.629Z,83.40
2018-06-16T06:23:55.493Z,83.70
2018-06-16T06:26:23.281Z,83.00
2018-06-16T06:28:50.949Z,82.40
2018-06-16T06:31:18.875Z,81.80
2018-06-16T06:33:47.995Z,82.30
2018-06-16T06:36:17.070Z,81.80
2018-06-16T06:38:46.673Z,83.00
2018-06-16T06:41:14.319Z,83.10
2018-06-16T06:43:41.894Z,83.30
2018-06-16T06:46:09.469Z,80.60
2018-06-16T06:48:40.086Z,82.00
2018-06-16T06:51:07.762Z,79.80
2018-06-16T06:53:36.015Z,81.40
2018-06-16T06:56:03.649Z,82.30
2018-06-16T06:58:31.260Z,82.60
2018-06-16T07:00:58.886Z,82.10
2018-06-16T07:03:27.216Z,81.40
2018-06-16T07:05:55.385Z,78.70
2018-06-16T07:08:23.508Z,78.00
2018-06-16T07:10:51.132Z,77.50
2018-06-16T07:13:19.402Z,78.40
2018-06-16T07:15:47.123Z,77.50
2018-06-16T07:18:14.701Z,77.60
2018-06-16T07:20:43.033Z,78.70
2018-06-16T07:23:10.673Z,78.90
2018-06-16T07:25:39.542Z,78.30
2018-06-16T07:28:07.214Z,80.60
2018-06-16T07:30:42.996Z,79.20
2018-06-16T07:33:10.823Z,78.90
2018-06-16T07:35:38.413Z,79.10
2018-06-16T07:38:05.982Z,76.60
2018-06-16T07:40:33.637Z,76.40
2018-06-16T07:43:01.253Z,74.60
2018-06-16T07:45:28.904Z,75.00
2018-06-16T07:47:56.565Z,74.50
2018-06-16T07:50:24.353Z,76.60
2018-06-16T07:52:52.009Z,75.70
2018-06-16T07:55:19.664Z,76.00
2018-06-16T07:57:47.355Z,76.90
2018-06-16T08:00:17.726Z,78.00
2018-06-16T08:02:45.443Z,77.50
2018-06-16T08:05:13.089Z,76.00
2018-06-16T08:07:40.645Z,75.60
2018-06-16T08:10:13.174Z,76.30
2018-06-16T08:12:40.789Z,75.10
2018-06-16T08:15:08.389Z,75.50
2018-06-16T08:17:35.957Z,75.60
2018-06-16T08:20:03.561Z,74.80
2018-06-16T08:22:31.132Z,73.80
2018-06-16T08:24:58.749Z,72.90
2018-06-16T08:27:26.497Z,74.20
2018-06-16T08:29:54.070Z,73.40
2018-06-16T08:32:21.644Z,73.80
2018-06-16T08:34:49.295Z,72.80
2018-06-16T08:37:16.997Z,72.80
2018-06-16T08:39:44.638Z,71.00
2018-06-16T08:42:12.332Z,71.80
2018-06-16T08:44:39.890Z,70.90
2018-06-16T08:47:07.532Z,71.00
2018-06-16T08:49:35.101Z,72.50
2018-06-16T08:52:02.682Z,71.80
2018-06-16T08:54:30.441Z,67.80
2018-06-16T08:56:58.462Z,67.60
2018-06-16T08:59:27.286Z,66.90
2018-06-16T09:01:54.868Z,67.60
2018-06-16T09:04:22.444Z,67.10
2018-06-16T09:06:50.041Z,64.20
2018-06-16T09:09:18.060Z,63.80
2018-06-16T09:11:46.113Z,60.70
2018-06-16T09:14:14.134Z,61.50
2018-06-16T09:16:42.466Z,63.00
2018-06-16T09:19:10.510Z,58.00
2018-06-16T09:21:38.388Z,60.10
2018-06-16T09:24:06.337Z,62.20
2018-06-16T09:26:34.142Z,61.00
2018-06-16T09:29:01.877Z,60.60
2018-06-16T09:31:29.611Z,60.10
2018-06-16T09:33:57.490Z,60.80
2018-06-16T09:36:25.054Z,62.50
2018-06-16T09:38:53.065Z,60.60
2018-06-16T09:41:20.693Z,59.80
2018-06-16T09:43:48.258Z,59.40
2018-06-16T09:46:16.221Z,59.90
2018-06-16T09:48:43.813Z,58.90
2018-06-16T09:51:11.412Z,58.20
2018-06-16T09:53:39.105Z,57.40
2018-06-16T09:56:07.240Z,60.20
2018-06-16T09:58:34.869Z,59.60
2018-06-16T10:01:02.547Z,60.80
2018-06-16T10:03:30.809Z,58.00
2018-06-16T10:05:59.277Z,57.20
2018-06-16T10:08:26.862Z,58.00
2018-06-16T10:10:54.442Z,57.60
2018-06-16T10:13:23.408Z,58.50
2018-06-16T10:15:51.166Z,60.00
2018-06-16T10:18:20.733Z,59.80
2018-06-16T10:20:48.909Z,60.20
2018-06-16T10:23:17.329Z,60.40
2018-06-16T10:25:45.247Z,58.70
2018-06-16T10:28:13.672Z,57.10
2018-06-16T10:30:41.913Z,57.40
2018-06-16T10:33:10.405Z,58.30
2018-06-16T10:35:37.972Z,59.00
2018-06-16T10:38:05.569Z,58.90
2018-06-16T10:40:33.245Z,56.50
2018-06-16T10:43:02.206Z,57.70
2018-06-16T10:45:30.188Z,57.60
2018-06-16T10:47:58.793Z,56.30
2018-06-16T10:50:26.580Z,56.50
2018-06-16T10:52:54.344Z,56.90
2018-06-16T10:55:21.937Z,55.60
2018-06-16T10:57:49.541Z,56.20
2018-06-16T11:00:17.437Z,57.80
2018-06-16T11:02:45.144Z,55.40
2018-06-16T11:05:12.754Z,58.60
2018-06-16T11:07:40.344Z,58.90
2018-06-16T11:10:08.706Z,57.40
2018-06-16T11:12:36.277Z,56.20
2018-06-16T11:15:05.985Z,53.50
2018-06-16T11:17:33.613Z,54.00
2018-06-16T11:20:01.609Z,55.40
2018-06-16T11:22:29.172Z,54.20
2018-06-16T11:24:56.741Z,54.00
2018-06-16T11:27:24.277Z,56.00
2018-06-16T11:29:51.907Z,53.50
2018-06-16T11:32:21.239Z,53.00
2018-06-16T11:34:48.861Z,52.70
2018-06-16T11:37:16.437Z,50.10
2018-06-16T11:39:44.110Z,52.00
2018-06-16T11:42:12.057Z,51.10
2018-06-16T11:44:39.829Z,52.00
2018-06-16T11:47:08.097Z,51.00
2018-06-16T11:49:35.821Z,53.30
2018-06-16T11:52:03.444Z,53.70
2018-06-16T11:54:31.163Z,53.60
2018-06-16T11:56:58.764Z,52.10
2018-06-16T11:59:26.816Z,52.00
2018-06-16T12:01:54.432Z,53.10
2018-06-16T12:04:21.997Z,55.20
2018-06-16T12:06:49.558Z,53.80
2018-06-16T12:09:17.129Z,52.30
2018-06-16T12:11:45.197Z,53.10
2018-06-16T12:14:12.765Z,52.50
2018-06-16T12:16:40.897Z,54.10
2018-06-16T12:19:08.489Z,50.60
2018-06-16T12:21:36.583Z,52.30
2018-06-16T12:24:04.205Z,51.80
2018-06-16T12:26:31.892Z,49.30
2018-06-16T12:28:59.661Z,50.30
2018-06-16T12:31:27.338Z,48.20
2018-06-16T12:33:54.935Z,52.50
2018-06-16T12:36:24.426Z,51.70
2018-06-16T12:38:52.044Z,52.30
2018-06-16T12:41:19.769Z,54.40
2018-06-16T12:43:47.363Z,54.50
2018-06-16T12:46:15.105Z,53.60
2018-06-16T12:48:42.648Z,55.80
2018-06-16T12:51:10.294Z,57.50
2018-06-16T12:53:38.248Z,57.30
2018-06-16T12:56:05.937Z,57.90
2018-06-16T12:58:33.562Z,59.20
2018-06-16T13:01:01.229Z,59.10
2018-06-16T13:03:28.789Z,58.60
2018-06-16T13:05:56.373Z,61.30
2018-06-16T13:08:23.944Z,57.90
2018-06-16T13:10:51.585Z,58.20
2018-06-16T13:13:19.173Z,55.80
2018-06-16T13:15:47.014Z,57.30
2018-06-16T13:18:14.626Z,57.70
2018-06-16T13:20:42.784Z,59.10
2018-06-16T13:23:10.686Z,59.00
2018-06-16T13:25:38.371Z,60.00
2018-06-16T13:28:06.852Z,59.30
2018-06-16T13:30:34.437Z,56.80
2018-06-16T13:33:02.057Z,56.50
2018-06-16T13:35:29.686Z,55.80
2018-06-16T13:37:57.249Z,55.60
2018-06-16T13:40:24.861Z,53.20
2018-06-16T13:42:52.450Z,51.00
2018-06-16T13:45:20.050Z,51.30
2018-06-16T13:47:47.612Z,52.60
2018-06-16T13:50:15.267Z,51.30
2018-06-16T13:52:43.281Z,49.40
2018-06-16T13:55:10.877Z,47.20
2018-06-16T13:57:38.485Z,49.40
2018-06-16T14:00:06.077Z,50.90
2018-06-16T14:02:33.745Z,51.10
2018-06-16T14:05:01.321Z,50.10
2018-06-16T14:07:28.902Z,49.10
2018-06-16T14:09:56.461Z,51.80
2018-06-16T14:12:24.806Z,49.60
2018-06-16T14:14:52.459Z,49.10
2018-06-16T14:17:20.070Z,50.70
2018-06-16T14:19:47.698Z,52.90
2018-06-16T14:22:15.316Z,53.20
2018-06-16T14:24:43.909Z,51.30
2018-06-16T14:27:11.518Z,48.20
2018-06-16T14:29:39.337Z,49.50
2018-06-16T14:32:07.042Z,48.90
2018-06-16T14:34:34.598Z,47.60
2018-06-16T14:37:02.676Z,45.90
2018-06-16T14:39:30.261Z,45.90
2018-06-16T14:41:57.854Z,45.00
2018-06-16T14:44:25.397Z,48.70
2018-06-16T14:46:52.976Z,44.50
2018-06-16T14:49:20.550Z,46.10
2018-06-16T14:51:48.138Z,47.20
2018-06-16T14:54:15.801Z,48.80
2018-06-16T14:56:43.718Z,50.50
2018-06-16T14:59:11.294Z,52.50
2018-06-16T15:01:38.873Z,55.20
2018-06-16T15:04:06.454Z,54.70
2018-06-16T15:06:34.489Z,56.70
2018-06-16T15:09:02.744Z,56.80
2018-06-16T15:11:30.745Z,56.40
2018-06-16T15:13:58.328Z,55.40
2018-06-16T15:16:26.193Z,53.90
2018-06-16T15:18:54.624Z,55.60
2018-06-16T15:21:22.281Z,56.90
2018-06-16T15:23:49.890Z,58.30
2018-06-16T15:26:17.485Z,58.80
2018-06-16T15:28:45.321Z,59.90
2018-06-16T15:31:13.222Z,59.00
2018-06-16T15:33:41.080Z,60.90
2018-06-16T15:36:08.686Z,61.20
2018-06-16T15:38:36.321Z,61.30
2018-06-16T15:41:03.979Z,68.40
2018-06-16T15:43:31.661Z,75.50
2018-06-16T15:45:59.237Z,82.60
2018-06-16T15:48:26.985Z,88.10
2018-06-16T15:50:54.918Z,90.30
2018-06-16T15:53:22.504Z,90.60
2018-06-16T15:55:50.379Z,90.50
2018-06-16T15:58:19.070Z,90.90
2018-06-16T16:00:46.693Z,90.30
2018-06-16T16:03:14.446Z,89.40
2018-06-16T16:05:42.966Z,90.20
2018-06-16T16:08:11.237Z,90.30
2018-06-16T16:10:39.242Z,89.30
2018-06-16T16:13:07.320Z,90.20
2018-06-16T16:15:35.762Z,90.50
2018-06-16T16:18:03.378Z,90.00
2018-06-16T16:20:31.893Z,90.20
2018-06-16T16:22:59.462Z,90.10
2018-06-16T16:25:27.130Z,90.00
2018-06-16T16:27:55.149Z,90.10
2018-06-16T16:30:23.417Z,89.40
2018-06-16T16:32:51.230Z,88.70
2018-06-16T16:35:19.057Z,87.30
2018-06-16T16:37:47.068Z,85.00
2018-06-16T16:40:15.040Z,82.70
2018-06-16T16:42:42.678Z,81.20
2018-06-16T16:45:10.221Z,79.80
2018-06-16T16:47:39.708Z,73.60
2018-06-16T16:50:07.313Z,70.30
2018-06-16T16:52:35.042Z,66.30
2018-06-16T16:58:34.199Z,71.80
2018-06-16T17:01:02.641Z,73.00
2018-06-16T17:03:30.308Z,76.80
2018-06-16T17:05:57.865Z,77.60
2018-06-16T17:08:25.438Z,77.80
2018-06-16T17:10:53.209Z,78.90
2018-06-16T17:13:20.814Z,80.60
2018-06-16T17:15:48.664Z,81.30
2018-06-16T17:18:17.321Z,82.60
2018-06-16T17:20:45.416Z,83.00
2018-06-16T17:23:12.999Z,83.60
2018-06-16T17:25:40.541Z,87.20
2018-06-16T17:28:08.125Z,86.30
2018-06-16T17:30:35.673Z,89.30
2018-06-16T17:33:04.546Z,90.10
2018-06-16T17:35:32.221Z,92.90
2018-06-16T17:38:00.202Z,94.40
2018-06-16T17:40:28.221Z,94.90
2018-06-16T17:42:55.780Z,95.90
2018-06-16T17:45:23.308Z,96.30
2018-06-16T17:47:51.015Z,96.80
2018-06-16T17:50:18.845Z,96.60
2018-06-16T17:52:46.477Z,96.10
2018-06-16T17:55:14.353Z,96.60
2018-06-16T17:57:42.424Z,96.80
2018-06-16T18:00:12.452Z,96.20
2018-06-16T18:02:40.062Z,96.60
2018-06-16T18:05:08.105Z,96.40
2018-06-16T18:07:36.028Z,97.40
2018-06-16T18:12:32.053Z,95.80
2018-06-16T18:14:59.649Z,96.40
2018-06-16T18:17:27.869Z,97.70
2018-06-16T18:19:55.590Z,97.00
2018-06-16T18:22:23.260Z,96.90
2018-06-16T18:24:51.931Z,97.20
2018-06-16T18:27:19.533Z,98.10
2018-06-16T18:29:48.408Z,98.60
2018-06-16T18:32:16.051Z,99.20
2018-06-16T18:34:43.637Z,99.00
2018-06-16T18:37:11.315Z,97.20
2018-06-16T18:39:39.269Z,96.10
2018-06-16T18:42:06.997Z,96.40
2018-06-16T18:44:36.001Z,96.20
2018-06-16T18:47:03.713Z,97.60
2018-06-16T18:49:31.306Z,99.00
2018-06-16T18:51:58.889Z,98.00
2018-06-16T18:54:26.682Z,98.90
2018-06-16T18:56:54.325Z,97.80
2018-06-16T18:59:22.149Z,98.40
2018-06-16T19:01:49.718Z,97.90
2018-06-16T19:04:17.479Z,97.70
2018-06-16T19:06:45.046Z,98.60
2018-06-16T19:09:12.590Z,98.90
2018-06-16T19:11:40.372Z,98.80
2018-06-16T19:14:07.961Z,99.00
2018-06-16T19:16:35.554Z,98.90
2018-06-16T19:19:03.201Z,99.20
2018-06-16T19:21:30.790Z,99.30
2018-06-16T19:23:58.356Z,99.40
2018-06-16T19:26:26.014Z,99.70
2018-06-16T19:28:53.577Z,99.60
2018-06-16T19:31:21.144Z,99.90
2018-06-16T19:33:49.106Z,99.50
2018-06-16T19:36:16.689Z,98.90
2018-06-16T19:38:44.261Z,98.50
2018-06-16T19:41:12.104Z,96.00
2018-06-16T19:43:39.676Z,95.00
2018-06-16T19:46:07.319Z,94.80
2018-06-16T19:48:34.877Z,96.00
2018-06-16T19:51:02.474Z,96.60
2018-06-16T19:53:30.009Z,95.20
2018-06-16T19:55:57.573Z,95.40
2018-06-16T19:58:25.196Z,94.40
2018-06-16T20:00:53.556Z,96.30
2018-06-16T20:03:21.109Z,95.30
2018-06-16T20:05:48.673Z,94.70
2018-06-16T20:08:16.218Z,94.20
2018-06-16T20:10:44.060Z,93.90
2018-06-16T20:13:11.630Z,93.70
2018-06-16T20:15:39.209Z,95.90
2018-06-16T20:18:06.985Z,94.00
2018-06-16T20:20:34.541Z,94.10
2018-06-16T20:23:02.057Z,93.20
2018-06-16T20:25:29.858Z,93.50
2018-06-16T20:27:57.655Z,93.80
2018-06-16T20:30:25.208Z,94.80
2018-06-16T20:32:53.533Z,95.60
2018-06-16T20:35:21.096Z,94.40
2018-06-16T20:37:48.677Z,94.20
2018-06-16T20:40:16.250Z,94.30
2018-06-16T20:42:43.800Z,93.60
2018-06-16T20:45:11.402Z,94.60
2018-06-16T20:47:39.092Z,93.80
2018-06-16T20:50:08.310Z,93.60
2018-06-16T20:52:36.001Z,95.10
2018-06-16T20:55:03.577Z,94.70
2018-06-16T20:57:31.181Z,94.50
2018-06-16T20:59:58.921Z,95.60
2018-06-16T21:02:26.481Z,95.90
2018-06-16T21:04:54.029Z,95.30
2018-06-16T21:07:21.657Z,96.30
2018-06-16T21:09:49.194Z,95.40
2018-06-16T21:12:16.726Z,95.10
2018-06-16T21:14:44.282Z,95.70
2018-06-16T21:17:11.838Z,95.70
2018-06-16T21:19:40.303Z,95.50
2018-06-16T21:22:07.901Z,95.00
2018-06-16T21:24:35.429Z,94.40
2018-06-16T21:27:03.050Z,94.10
2018-06-16T21:29:30.677Z,94.30
2018-06-16T21:31:58.270Z,94.50
2018-06-16T21:34:25.829Z,94.90
2018-06-16T21:36:53.381Z,95.50
2018-06-16T21:39:20.917Z,94.20
2018-06-16T21:41:48.568Z,94.00
2018-06-16T21:44:16.096Z,93.90
2018-06-16T21:46:43.693Z,94.00
2018-06-16T21:49:11.209Z,93.90
2018-06-16T21:51:38.856Z,94.10
2018-06-16T21:54:06.405Z,93.60
2018-06-16T21:56:33.960Z,93.50
2018-06-16T21:59:01.509Z,93.90
2018-06-16T22:01:30.958Z,93.40
2018-06-16T22:03:58.920Z,94.30
2018-06-16T22:06:27.567Z,94.70
2018-06-16T22:08:55.343Z,94.70
2018-06-16T22:11:22.900Z,94.20
2018-06-16T22:13:50.482Z,94.70
2018-06-16T22:16:18.057Z,95.20
2018-06-16T22:18:45.760Z,94.90
2018-06-16T22:21:14.387Z,94.70
2018-06-16T22:23:42.030Z,94.50
2018-06-16T22:26:09.609Z,94.40
2018-06-16T22:28:37.181Z,94.60
2018-06-16T22:31:04.882Z,95.10
2018-06-16T22:33:32.522Z,94.90
2018-06-16T22:36:00.096Z,94.50
2018-06-16T22:38:27.701Z,94.90
2018-06-16T22:40:55.430Z,94.40
2018-06-16T22:43:23.070Z,94.60
2018-06-16T22:45:50.824Z,94.90
2018-06-16T22:48:18.511Z,94.30
2018-06-16T22:50:46.074Z,94.10
2018-06-16T22:53:13.638Z,94.40
2018-06-16T22:55:41.503Z,93.90
2018-06-16T22:58:09.089Z,94.10
2018-06-16T23:00:36.645Z,94.20
2018-06-16T23:03:04.242Z,94.40
2018-06-16T23:05:32.518Z,94.40
2018-06-16T23:08:00.094Z,94.00
2018-06-16T23:10:27.702Z,94.20
2018-06-16T23:12:55.253Z,94.20
2018-06-16T23:15:22.945Z,94.50
2018-06-16T23:17:50.514Z,94.00
2018-06-16T23:20:18.043Z,94.30
2018-06-16T23:22:45.709Z,94.40
2018-06-16T23:25:13.361Z,94.50
2018-06-16T23:27:40.894Z,94.90
2018-06-16T23:30:08.490Z,95.00
2018-06-16T23:32:36.028Z,94.70
2018-06-16T23:35:03.656Z,95.10
2018-06-16T23:37:31.217Z,95.10
2018-06-16T23:39:58.772Z,95.70
2018-06-16T23:42:26.794Z,95.60
2018-06-16T23:44:54.396Z,95.70
2018-06-16T23:47:21.929Z,95.50
2018-06-16T23:49:49.498Z,94.70
2018-06-16T23:52:17.049Z,95.10
2018-06-16T23:54:44.610Z,95.20
2018-06-16T23:57:12.161Z,95.00
2018-06-16T23:59:39.738Z,94.90
